createdAt,value
2019-02-25T00:01:58.741Z,55.44
2019-02-25T00:04:29.152Z,55.77
2019-02-25T00:06:59.417Z,55.62
2019-02-25T00:09:30.825Z,55.48
2019-02-25T00:12:02.298Z,55.72
2019-02-25T00:14:32.810Z,55.77
2019-02-25T00:17:04.282Z,55.99
2019-02-25T00:19:35.709Z,56.30
2019-02-25T00:22:05.987Z,56.11
2019-02-25T00:24:36.231Z,55.96
2019-02-25T00:27:06.704Z,55.91
2019-02-25T00:29:38.145Z,55.91
2019-02-25T00:32:09.680Z,55.92
2019-02-25T00:34:41.049Z,56.35
2019-02-25T00:37:12.498Z,56.35
2019-02-25T00:39:43.956Z,57.61
2019-02-25T00:42:15.083Z,57.61
2019-02-25T00:44:46.536Z,57.95
2019-02-25T00:47:17.992Z,57.60
2019-02-25T00:49:49.443Z,57.86
2019-02-25T00:52:20.884Z,58.16
2019-02-25T00:54:51.132Z,58.18
2019-02-25T00:57:23.488Z,58.44
2019-02-25T00:59:56.167Z,57.86
2019-02-25T01:02:28.536Z,58.06
2019-02-25T01:05:00.910Z,58.58
2019-02-25T01:07:32.364Z,58.14
2019-02-25T01:10:07.457Z,57.63
2019-02-25T01:12:37.725Z,57.37
2019-02-25T01:15:09.181Z,57.54
2019-02-25T01:17:40.627Z,57.77
2019-02-25T01:20:14.944Z,57.75
2019-02-25T01:22:45.368Z,58.74
2019-02-25T01:25:18.384Z,58.42
2019-02-25T01:27:49.808Z,58.46
2019-02-25T01:30:21.439Z,58.06
2019-02-25T01:32:51.804Z,58.04
2019-02-25T01:35:24.179Z,58.65
2019-02-25T01:37:55.619Z,58.90
2019-02-25T01:40:27.069Z,58.52
2019-02-25T01:42:58.209Z,58.54
2019-02-25T01:45:29.664Z,58.47
2019-02-25T01:48:01.108Z,58.29
2019-02-25T01:50:33.487Z,59.33
2019-02-25T01:53:06.010Z,59.05
2019-02-25T01:55:36.389Z,59.04
2019-02-25T01:58:07.839Z,59.24
2019-02-25T02:00:40.520Z,59.81
2019-02-25T02:03:11.971Z,59.42
2019-02-25T02:05:43.424Z,59.59
2019-02-25T02:08:14.871Z,59.65
2019-02-25T02:10:46.328Z,59.29
2019-02-25T02:13:18.731Z,59.62
2019-02-25T02:15:50.149Z,59.81
2019-02-25T02:18:22.825Z,60.15
2019-02-25T02:20:56.282Z,60.41
2019-02-25T02:23:26.650Z,60.29
2019-02-25T02:25:58.101Z,60.37
2019-02-25T02:28:29.552Z,60.46
2019-02-25T02:31:01.008Z,60.55
2019-02-25T02:33:33.381Z,61.02
2019-02-25T02:36:04.834Z,60.44
2019-02-25T02:38:37.523Z,60.24
2019-02-25T02:41:08.959Z,60.10
2019-02-25T02:43:41.655Z,60.24
2019-02-25T02:46:25.626Z,60.22
2019-02-25T02:48:59.417Z,59.98
2019-02-25T02:51:29.816Z,60.31
2019-02-25T02:54:01.279Z,60.68
2019-02-25T02:56:33.042Z,60.81
2019-02-25T02:59:03.295Z,61.21
2019-02-25T03:01:34.700Z,60.51
2019-02-25T03:04:04.941Z,61.11
2019-02-25T03:06:36.392Z,61.56
2019-02-25T03:09:09.478Z,61.63
2019-02-25T03:11:40.199Z,62.27
2019-02-25T03:14:11.660Z,62.29
2019-02-25T03:16:43.103Z,62.34
2019-02-25T03:19:15.779Z,62.12
2019-02-25T03:21:47.290Z,61.64
2019-02-25T03:24:18.688Z,61.65
2019-02-25T03:26:51.049Z,61.67
2019-02-25T03:29:21.295Z,61.98
2019-02-25T03:31:52.737Z,62.10
2019-02-25T03:34:23.268Z,62.07
2019-02-25T03:36:54.711Z,61.97
2019-02-25T03:39:26.169Z,62.22
2019-02-25T03:41:57.613Z,62.43
2019-02-25T03:44:29.075Z,62.61
2019-02-25T03:47:00.520Z,63.12
2019-02-25T03:49:31.976Z,63.41
2019-02-25T03:52:03.428Z,63.55
2019-02-25T03:54:34.881Z,63.58
2019-02-25T03:57:06.323Z,63.54
2019-02-25T03:59:37.850Z,63.33
2019-02-25T04:02:10.766Z,63.18
2019-02-25T04:04:42.220Z,63.42
2019-02-25T04:07:13.665Z,63.60
2019-02-25T04:09:45.119Z,63.25
2019-02-25T04:12:16.569Z,63.55
2019-02-25T04:14:48.030Z,63.83
2019-02-25T04:17:20.389Z,63.60
2019-02-25T04:19:52.767Z,64.03
2019-02-25T04:22:24.832Z,63.86
2019-02-25T04:24:56.286Z,63.48
2019-02-25T04:27:27.733Z,63.47
2019-02-25T04:29:57.980Z,63.50
2019-02-25T04:32:29.405Z,63.39
2019-02-25T04:35:00.862Z,63.54
2019-02-25T04:37:31.095Z,63.95
2019-02-25T04:40:01.925Z,64.04
2019-02-25T04:42:36.137Z,64.56
2019-02-25T04:45:16.592Z,64.79
2019-02-25T04:47:47.022Z,64.88
2019-02-25T04:50:19.395Z,65.15
2019-02-25T04:52:50.856Z,65.40
2019-02-25T04:55:22.320Z,65.58
2019-02-25T04:57:53.755Z,65.89
2019-02-25T05:00:26.545Z,66.04
2019-02-25T05:02:56.965Z,66.08
2019-02-25T05:05:28.425Z,66.17
2019-02-25T05:07:59.873Z,66.61
2019-02-25T05:10:31.334Z,66.23
2019-02-25T05:13:06.175Z,66.02
2019-02-25T05:15:40.277Z,65.84
2019-02-25T05:18:10.596Z,66.05
2019-02-25T05:20:40.860Z,66.22
2019-02-25T05:23:12.260Z,66.16
2019-02-25T05:25:43.711Z,65.91
2019-02-25T05:28:15.162Z,66.01
2019-02-25T05:30:46.674Z,65.94
2019-02-25T05:33:17.152Z,66.13
2019-02-25T05:35:48.593Z,66.76
2019-02-25T05:38:18.840Z,66.94
2019-02-25T05:40:50.271Z,67.05
2019-02-25T05:43:21.716Z,67.32
2019-02-25T05:45:53.171Z,66.99
2019-02-25T05:48:24.640Z,66.95
2019-02-25T05:50:56.077Z,66.89
2019-02-25T05:53:27.526Z,66.50
2019-02-25T05:55:58.978Z,66.02
2019-02-25T05:58:31.348Z,66.00
2019-02-25T06:01:02.815Z,65.39
2019-02-25T06:03:34.255Z,65.21
2019-02-25T06:06:05.701Z,65.21
2019-02-25T06:08:38.385Z,65.06
2019-02-25T06:11:09.837Z,64.66
2019-02-25T06:13:41.289Z,64.08
2019-02-25T06:16:12.737Z,63.87
2019-02-25T06:18:44.192Z,63.72
2019-02-25T06:21:15.649Z,64.14
2019-02-25T06:23:47.237Z,63.63
2019-02-25T06:26:19.272Z,63.27
2019-02-25T06:28:51.473Z,62.46
2019-02-25T06:31:24.827Z,62.25
2019-02-25T06:33:55.093Z,62.00
2019-02-25T06:36:27.431Z,62.02
2019-02-25T06:38:58.803Z,61.79
2019-02-25T06:41:30.224Z,62.51
2019-02-25T06:44:00.541Z,62.38
2019-02-25T06:46:32.959Z,62.14
2019-02-25T06:49:04.384Z,61.75
2019-02-25T06:51:35.985Z,61.01
2019-02-25T06:54:06.370Z,61.01
2019-02-25T06:56:36.739Z,60.37
2019-02-25T06:59:08.032Z,59.88
2019-02-25T07:01:38.293Z,59.43
2019-02-25T07:04:17.395Z,59.43
2019-02-25T07:06:50.199Z,58.23
2019-02-25T07:09:31.832Z,56.66
2019-02-25T07:12:06.502Z,54.73
2019-02-25T07:14:38.383Z,52.30
2019-02-25T07:17:29.406Z,51.32
2019-02-25T07:20:10.394Z,50.00
2019-02-25T07:22:50.219Z,47.12
2019-02-25T07:25:22.244Z,45.07
2019-02-25T07:28:10.463Z,43.42
2019-02-25T07:30:58.759Z,42.25
2019-02-25T07:33:44.395Z,40.56
2019-02-25T07:36:18.714Z,39.81
2019-02-25T07:38:59.764Z,38.82
2019-02-25T07:41:34.749Z,38.15
2019-02-25T07:44:07.911Z,37.88
2019-02-25T07:46:45.613Z,38.04
2019-02-25T07:49:23.655Z,37.54
2019-02-25T07:52:02.063Z,37.80
2019-02-25T07:54:53.988Z,36.90
2019-02-25T07:57:28.747Z,36.70
2019-02-25T08:00:03.685Z,36.15
2019-02-25T08:02:43.102Z,36.11
2019-02-25T08:05:17.742Z,35.52
2019-02-25T08:08:06.141Z,34.72
2019-02-25T08:10:44.115Z,33.78
2019-02-25T08:13:16.005Z,33.65
2019-02-25T08:15:56.744Z,32.94
2019-02-25T08:18:37.530Z,33.38
2019-02-25T08:21:21.259Z,32.78
2019-02-25T08:24:05.054Z,32.60
2019-02-25T08:26:53.105Z,32.60
2019-02-25T08:29:37.004Z,33.00
2019-02-25T08:32:20.797Z,33.63
2019-02-25T08:35:07.691Z,32.90
2019-02-25T08:37:45.704Z,32.20
2019-02-25T08:40:38.557Z,32.08
2019-02-25T08:43:29.017Z,33.25
2019-02-25T08:46:17.016Z,34.35
2019-02-25T08:49:03.114Z,33.97
2019-02-25T08:51:34.830Z,34.16
2019-02-25T08:54:08.455Z,33.61
2019-02-25T08:56:39.877Z,35.35
2019-02-25T08:59:15.530Z,38.39
2019-02-25T09:01:49.855Z,40.82
2019-02-25T09:04:25.127Z,43.84
2019-02-25T09:06:57.116Z,45.06
2019-02-25T09:09:28.504Z,45.91
2019-02-25T09:11:58.753Z,46.62
2019-02-25T09:14:30.174Z,47.59
2019-02-25T09:17:00.418Z,48.03
2019-02-25T09:19:33.480Z,47.35
2019-02-25T09:22:03.738Z,46.76
2019-02-25T09:24:40.857Z,47.95
2019-02-25T09:27:14.064Z,48.18
2019-02-25T09:29:47.181Z,48.52
2019-02-25T09:32:19.033Z,47.54
2019-02-25T09:34:49.474Z,47.43
2019-02-25T09:37:26.058Z,47.25
2019-02-25T09:39:58.259Z,47.04
2019-02-25T09:42:31.773Z,46.71
2019-02-25T09:45:09.529Z,46.86
2019-02-25T09:47:39.953Z,46.81
2019-02-25T09:50:14.077Z,47.72
2019-02-25T09:52:44.372Z,48.67
2019-02-25T09:55:18.432Z,48.86
2019-02-25T09:57:48.814Z,48.95
2019-02-25T10:00:24.092Z,50.49
2019-02-25T10:02:54.484Z,51.48
2019-02-25T10:05:24.714Z,51.45
2019-02-25T10:07:57.068Z,51.65
2019-02-25T10:10:32.330Z,51.00
2019-02-25T10:13:05.815Z,50.32
2019-02-25T10:15:36.062Z,50.04
2019-02-25T10:18:10.162Z,50.28
2019-02-25T10:20:40.494Z,50.20
2019-02-25T10:23:12.845Z,50.37
2019-02-25T10:25:47.164Z,51.18
2019-02-25T10:28:21.581Z,51.02
2019-02-25T10:30:53.472Z,50.61
2019-02-25T10:33:23.717Z,50.66
2019-02-25T10:35:55.562Z,50.22
2019-02-25T10:38:25.849Z,50.17
2019-02-25T10:40:56.098Z,49.55
2019-02-25T10:43:29.538Z,49.45
2019-02-25T10:46:01.757Z,49.91
2019-02-25T10:48:34.123Z,49.41
2019-02-25T10:51:09.327Z,48.61
2019-02-25T10:53:39.608Z,47.72
2019-02-25T10:56:14.527Z,47.43
2019-02-25T10:58:45.250Z,47.03
2019-02-25T11:01:19.727Z,46.58
2019-02-25T11:03:50.040Z,46.17
2019-02-25T11:06:21.023Z,45.69
2019-02-25T11:08:54.028Z,45.64
2019-02-25T11:11:28.917Z,45.61
2019-02-25T11:14:00.871Z,46.00
2019-02-25T11:16:32.754Z,46.57
2019-02-25T11:19:03.004Z,47.05
2019-02-25T11:21:35.200Z,46.70
2019-02-25T11:24:05.206Z,46.97
2019-02-25T11:26:35.492Z,46.58
2019-02-25T11:29:11.718Z,46.56
2019-02-25T11:31:45.726Z,46.63
2019-02-25T11:34:23.078Z,46.28
2019-02-25T11:36:57.197Z,46.51
2019-02-25T11:39:32.686Z,46.43
2019-02-25T11:42:05.088Z,46.07
2019-02-25T11:44:35.228Z,46.11
2019-02-25T11:47:07.105Z,43.90
2019-02-25T11:49:37.517Z,44.31
2019-02-25T11:52:08.445Z,43.03
2019-02-25T11:54:38.882Z,43.28
2019-02-25T11:57:09.133Z,42.64
2019-02-25T11:59:40.563Z,41.27
2019-02-25T12:02:10.804Z,40.99
2019-02-25T12:04:42.252Z,40.28
2019-02-25T12:07:12.589Z,38.71
2019-02-25T12:09:44.644Z,38.86
2019-02-25T12:12:17.878Z,37.42
2019-02-25T12:14:51.737Z,36.61
2019-02-25T12:17:22.024Z,36.57
2019-02-25T12:19:54.009Z,36.23
2019-02-25T12:22:24.243Z,35.49
2019-02-25T12:24:54.496Z,35.08
2019-02-25T12:27:25.931Z,35.90
2019-02-25T12:29:57.365Z,35.94
2019-02-25T12:32:28.815Z,36.29
2019-02-25T12:34:59.066Z,36.22
2019-02-25T12:37:29.322Z,36.33
2019-02-25T12:39:59.569Z,36.21
2019-02-25T12:42:29.817Z,37.00
2019-02-25T12:45:00.114Z,37.07
2019-02-25T12:47:33.507Z,36.30
2019-02-25T12:50:06.150Z,36.08
2019-02-25T12:52:36.436Z,36.26
2019-02-25T12:55:09.824Z,34.85
2019-02-25T12:57:40.070Z,34.55
2019-02-25T13:00:17.927Z,34.26
2019-02-25T13:02:48.277Z,33.31
2019-02-25T13:05:20.561Z,32.97
2019-02-25T13:07:50.814Z,32.67
2019-02-25T13:10:21.055Z,32.03
2019-02-25T13:12:51.774Z,31.95
2019-02-25T13:15:24.561Z,32.09
2019-02-25T13:17:54.820Z,32.51
2019-02-25T13:20:25.067Z,32.62
2019-02-25T13:22:55.315Z,32.90
2019-02-25T13:25:28.200Z,32.29
2019-02-25T13:27:59.440Z,31.86
2019-02-25T13:30:30.385Z,32.01
2019-02-25T13:33:01.807Z,31.86
2019-02-25T13:35:32.055Z,31.06
2019-02-25T13:38:02.300Z,32.02
2019-02-25T13:40:32.826Z,31.52
2019-02-25T13:43:03.076Z,31.25
2019-02-25T13:45:33.320Z,30.57
2019-02-25T13:48:05.122Z,31.16
2019-02-25T13:50:35.378Z,32.02
2019-02-25T13:53:06.658Z,31.87
2019-02-25T13:55:37.182Z,32.88
2019-02-25T13:58:07.442Z,33.28
2019-02-25T14:00:37.715Z,32.40
2019-02-25T14:03:08.664Z,32.54
2019-02-25T14:05:38.915Z,32.28
2019-02-25T14:08:10.926Z,32.19
2019-02-25T14:10:42.533Z,32.65
2019-02-25T14:13:13.574Z,32.76
2019-02-25T14:15:45.466Z,33.06
2019-02-25T14:18:16.302Z,32.64
2019-02-25T14:20:46.554Z,33.29
2019-02-25T14:23:18.451Z,33.93
2019-02-25T14:25:48.998Z,34.30
2019-02-25T14:28:19.313Z,33.72
2019-02-25T14:30:51.606Z,33.73
2019-02-25T14:33:23.589Z,33.81
2019-02-25T14:35:53.981Z,32.53
2019-02-25T14:38:27.130Z,32.10
2019-02-25T14:40:57.723Z,27.79
2019-02-25T14:43:29.184Z,27.12
2019-02-25T14:46:01.452Z,27.56
2019-02-25T14:48:32.851Z,25.85
2019-02-25T14:51:04.692Z,26.69
2019-02-25T14:53:34.998Z,26.49
2019-02-25T14:56:07.912Z,26.24
2019-02-25T14:58:40.202Z,26.65
2019-02-25T15:01:10.340Z,26.86
2019-02-25T15:03:42.712Z,27.05
2019-02-25T15:06:21.276Z,27.29
2019-02-25T15:08:52.491Z,27.82
2019-02-25T15:11:22.875Z,28.14
2019-02-25T15:13:54.331Z,28.35
2019-02-25T15:16:25.783Z,28.95
2019-02-25T15:18:56.032Z,29.60
2019-02-25T15:21:26.309Z,29.96
2019-02-25T15:24:00.037Z,30.22
2019-02-25T15:26:30.311Z,30.52
2019-02-25T15:29:02.913Z,31.11
2019-02-25T15:31:34.700Z,31.03
2019-02-25T15:34:05.036Z,31.42
2019-02-25T15:36:36.472Z,31.83
2019-02-25T15:39:10.896Z,32.29
2019-02-25T15:41:44.090Z,32.61
2019-02-25T15:44:15.251Z,32.86
2019-02-25T15:46:45.542Z,33.12
2019-02-25T15:49:17.244Z,33.96
2019-02-25T15:51:49.820Z,33.54
2019-02-25T15:54:22.904Z,34.03
2019-02-25T15:56:54.614Z,34.58
2019-02-25T15:59:32.038Z,34.76
2019-02-25T16:02:03.491Z,35.28
2019-02-25T16:04:38.103Z,35.47
2019-02-25T16:07:10.523Z,35.81
2019-02-25T16:09:40.998Z,36.14
2019-02-25T16:12:11.249Z,36.57
2019-02-25T16:14:42.243Z,37.10
2019-02-25T16:17:13.718Z,37.03
2019-02-25T16:19:47.815Z,37.83
2019-02-25T16:22:19.992Z,38.45
2019-02-25T16:24:50.421Z,38.32
2019-02-25T16:27:23.246Z,38.93
2019-02-25T16:29:58.064Z,39.44
2019-02-25T16:32:31.841Z,40.12
2019-02-25T16:35:03.167Z,40.41
2019-02-25T16:37:35.525Z,40.76
2019-02-25T16:40:17.616Z,41.38
2019-02-25T16:42:48.316Z,41.72
2019-02-25T16:45:21.412Z,42.24
2019-02-25T16:47:51.834Z,42.50
2019-02-25T16:50:24.751Z,42.93
2019-02-25T16:52:56.907Z,43.17
2019-02-25T16:55:29.308Z,43.58
2019-02-25T16:58:03.597Z,43.87
2019-02-25T17:00:35.460Z,44.00
2019-02-25T17:03:06.660Z,44.38
2019-02-25T17:05:40.314Z,44.83
2019-02-25T17:08:12.891Z,45.08
2019-02-25T17:10:43.194Z,45.22
2019-02-25T17:13:15.437Z,45.49
2019-02-25T17:15:47.652Z,45.82
2019-02-25T17:18:20.612Z,46.21
2019-02-25T17:20:52.073Z,46.51
2019-02-25T17:23:27.195Z,46.25
2019-02-25T17:25:56.514Z,46.40
2019-02-25T17:28:27.448Z,46.55
2019-02-25T17:30:57.884Z,46.81
2019-02-25T17:33:28.762Z,47.45
2019-02-25T17:36:00.237Z,47.50
2019-02-25T17:38:30.668Z,47.81
2019-02-25T17:41:03.308Z,48.12
2019-02-25T17:43:34.247Z,48.42
2019-02-25T17:46:06.974Z,48.65
2019-02-25T17:48:39.209Z,49.00
2019-02-25T17:51:10.400Z,49.19
2019-02-25T17:53:41.532Z,49.46
2019-02-25T17:56:13.924Z,49.96
2019-02-25T17:58:46.867Z,50.14
2019-02-25T18:01:19.670Z,50.37
2019-02-25T18:03:53.557Z,50.68
2019-02-25T18:06:29.604Z,51.16
2019-02-25T18:08:58.247Z,51.34
2019-02-25T18:11:30.702Z,51.42
2019-02-25T18:14:01.127Z,51.79
2019-02-25T18:16:33.191Z,51.84
2019-02-25T18:19:03.421Z,52.51
2019-02-25T18:21:34.864Z,52.80
2019-02-25T18:24:05.117Z,53.04
2019-02-25T18:26:37.772Z,53.19
2019-02-25T18:29:09.424Z,53.18
2019-02-25T18:31:44.972Z,53.35
2019-02-25T18:34:16.439Z,53.46
2019-02-25T18:36:48.945Z,53.49
2019-02-25T18:39:23.135Z,53.69
2019-02-25T18:41:55.556Z,54.01
2019-02-25T18:44:29.105Z,54.32
2019-02-25T18:46:59.990Z,54.74
2019-02-25T18:49:32.518Z,55.18
2019-02-25T18:52:02.437Z,55.50
2019-02-25T18:54:39.656Z,55.80
2019-02-25T18:57:11.812Z,56.19
2019-02-25T18:59:43.238Z,56.53
2019-02-25T19:02:16.651Z,56.70
2019-02-25T19:04:48.140Z,56.82
2019-02-25T19:07:20.225Z,57.16
2019-02-25T19:09:51.675Z,57.17
2019-02-25T19:12:23.162Z,57.31
2019-02-25T19:14:55.740Z,57.67
2019-02-25T19:17:27.519Z,57.76
2019-02-25T19:19:58.574Z,57.94
2019-02-25T19:22:30.608Z,57.88
2019-02-25T19:25:00.909Z,57.97
2019-02-25T19:27:34.110Z,58.20
2019-02-25T19:30:10.003Z,58.18
2019-02-25T19:32:41.235Z,58.35
2019-02-25T19:35:12.101Z,59.23
2019-02-25T19:37:44.425Z,59.76
2019-02-25T19:40:26.691Z,60.49
2019-02-25T19:42:58.816Z,61.22
2019-02-25T19:45:29.337Z,61.81
2019-02-25T19:48:02.487Z,62.11
2019-02-25T19:50:34.807Z,62.36
2019-02-25T19:53:07.640Z,62.72
2019-02-25T19:55:40.461Z,62.88
2019-02-25T19:58:11.878Z,63.69
2019-02-25T20:00:44.970Z,63.89
2019-02-25T20:03:15.256Z,64.09
2019-02-25T20:05:51.979Z,64.45
2019-02-25T20:08:23.253Z,64.97
2019-02-25T20:10:56.248Z,65.13
2019-02-25T20:13:28.917Z,65.74
2019-02-25T20:16:07.858Z,65.97
2019-02-25T20:18:37.722Z,66.30
2019-02-25T20:21:09.335Z,65.88
2019-02-25T20:23:40.804Z,66.73
2019-02-25T20:26:13.487Z,66.55
2019-02-25T20:28:46.215Z,66.95
2019-02-25T20:31:16.818Z,66.94
2019-02-25T20:33:47.214Z,66.96
2019-02-25T20:36:21.362Z,67.13
2019-02-25T20:38:49.493Z,66.80
2019-02-25T20:41:26.228Z,66.74
2019-02-25T20:44:00.715Z,66.75
2019-02-25T20:46:35.316Z,66.74
2019-02-25T20:49:07.259Z,66.56
2019-02-25T20:51:40.103Z,66.58
2019-02-25T20:54:17.769Z,66.49
2019-02-25T20:56:55.508Z,66.53
2019-02-25T20:59:32.325Z,66.45
2019-02-25T21:02:04.849Z,66.45
2019-02-25T21:04:43.348Z,66.07
2019-02-25T21:07:18.971Z,66.03
2019-02-25T21:09:52.826Z,65.93
2019-02-25T21:12:23.235Z,65.95
2019-02-25T21:14:54.678Z,65.93
2019-02-25T21:17:35.550Z,65.68
2019-02-25T21:20:14.615Z,65.46
2019-02-25T21:22:52.442Z,65.52
2019-02-25T21:25:24.439Z,65.08
2019-02-25T21:27:55.174Z,65.06
2019-02-25T21:30:24.868Z,64.91
2019-02-25T21:32:59.056Z,64.90
2019-02-25T21:35:30.125Z,64.91
2019-02-25T21:38:02.486Z,64.90
2019-02-25T21:40:32.906Z,65.00
2019-02-25T21:43:06.549Z,64.94
2019-02-25T21:45:37.328Z,64.60
2019-02-25T21:48:13.939Z,64.68
2019-02-25T21:50:45.400Z,64.94
2019-02-25T21:53:18.286Z,65.00
2019-02-25T21:55:51.092Z,64.84
2019-02-25T21:58:23.194Z,64.75
2019-02-25T22:00:53.326Z,64.54
2019-02-25T22:03:24.787Z,64.61
2019-02-25T22:05:58.751Z,64.53
2019-02-25T22:08:31.364Z,64.42
2019-02-25T22:11:12.572Z,64.64
2019-02-25T22:13:34.587Z,64.63
2019-02-25T22:16:08.045Z,64.54
2019-02-25T22:18:41.972Z,64.56
2019-02-25T22:21:14.208Z,64.65
2019-02-25T22:23:44.670Z,64.65
2019-02-25T22:26:14.927Z,64.45
2019-02-25T22:28:46.362Z,64.44
2019-02-25T22:31:18.194Z,64.29
2019-02-25T22:33:50.326Z,64.17
2019-02-25T22:36:21.761Z,64.03
2019-02-25T22:38:52.170Z,64.01
2019-02-25T22:41:25.090Z,63.92
2019-02-25T22:43:55.659Z,63.88
2019-02-25T22:46:29.791Z,63.96
2019-02-25T22:49:00.864Z,63.77
2019-02-25T22:51:33.054Z,63.78
2019-02-25T22:54:03.637Z,63.74
2019-02-25T22:56:35.392Z,63.77
2019-02-25T22:59:06.839Z,63.81
2019-02-25T23:01:38.452Z,63.78
2019-02-25T23:04:11.151Z,63.88
2019-02-25T23:06:43.917Z,63.93
2019-02-25T23:09:14.379Z,63.94
2019-02-25T23:11:48.205Z,64.01
2019-02-25T23:14:18.296Z,64.04
2019-02-25T23:16:49.747Z,64.13
2019-02-25T23:19:22.525Z,64.14
2019-02-25T23:21:52.971Z,64.03
2019-02-25T23:24:27.986Z,63.98
2019-02-25T23:26:59.515Z,63.95
2019-02-25T23:29:29.592Z,64.12
2019-02-25T23:32:02.534Z,64.31
2019-02-25T23:34:35.900Z,64.57
2019-02-25T23:37:08.356Z,64.73
2019-02-25T23:39:40.520Z,64.76
2019-02-25T23:42:13.496Z,64.99
2019-02-25T23:44:43.707Z,65.36
2019-02-25T23:47:16.099Z,65.42
2019-02-25T23:49:48.633Z,65.55
2019-02-25T23:52:19.005Z,65.94
2019-02-25T23:54:51.969Z,66.25
2019-02-25T23:57:23.937Z,66.23
2019-02-25T23:59:55.777Z,66.42
